Bookmark and Share
Track history (hours):
 

Saigon Express

Last reported at 2014-Apr-24 05:33 UTC. Time now 2014-Apr-24 05:54 UTC.
Position N 39°41' W 029°05'.

Length 260 m; draft 11.3 m.

Type: Ship (hazmat cat B). MMSI: 477106800.

NotesDate/timePositionNaut miles runAvg speedWind from/ knotsBaromVisibWave heightAir tempDewpointWater temp
2014-Apr-24 05:33N 39°41' W 029°05'1918.7
2014-Apr-24 04:33N 39°37' W 028°41'1918.8
2014-Apr-24 03:33N 39°33' W 028°18'1918.9
2014-Apr-24 02:33N 39°29' W 027°54'1818.5
2014-Apr-24 01:34N 39°25' W 027°30'9918.4
2014-Apr-23 20:12N 39°06' W 025°25'1218.1
2014-Apr-23 19:31N 39°03' W 025°10'1718.1
2014-Apr-23 18:33N 38°59' W 024°48'2418.0
2014-Apr-23 17:14N 38°54' W 024°18'89518.4
2014-Apr-21 16:30N 35°59' W 005°53'1 1.1
2014-Apr-21 15:31N 35°59' W 005°55'16 8.0
2014-Apr-21 13:33N 35°59' W 005°35'1312.8
2014-Apr-21 12:33N 36°02' W 005°20'1716.8
2014-Apr-21 11:32N 36°07' W 004°59'73519.3
2014-Apr-19 21:28N 37°46' E 010°12'1719.2
2014-Apr-19 20:33N 37°40' E 010°33'1919.0
2014-Apr-19 19:33N 37°34' E 010°55'1919.0
2014-Apr-19 18:34N 37°25' E 011°16'2019.7
2014-Apr-19 17:34N 37°15' E 011°38'2019.6
2014-Apr-19 16:33N 37°06' E 011°59'2619.7
2014-Apr-19 15:15N 36°57' E 012°30'9319.0
2014-Apr-19 10:21N 36°29' E 014°21'  

Dump ship's entire track history

sailing weather and tide predictions

Saigon Express — VRBT7 — position and weather